N973SE ENEV-ENBO
Flight info
| Callsign | N973SE |
|---|---|
| Flight time | N/A |
| Altitude | 18000 |
| Route | GEPTU |
| Aircraft | C414/L-SBDFGRY/S |
Departure
| Time | 2026-04-17 06:28 |
|---|---|
| Airport | Harstad/Narvik Airport (ENEV) |
Arrival
| Time | N/A |
|---|---|
| Airport | Bodø Airport (ENBO) |
| Time | Latitude | Longitude | Altitude | Speed | Heading |
|---|---|---|---|---|---|
| 2026-04-17 06:23 | 68.49220 | 16.68337 | 85 ft | 0 kts | 358° |
| 2026-04-17 06:26 | 68.49223 | 16.68335 | 85 ft | 3 kts | 336° |
| 2026-04-17 06:26 | 68.49217 | 16.68220 | 87 ft | 12 kts | 219° |
| 2026-04-17 06:27 | 68.49173 | 16.67999 | 85 ft | 14 kts | 266° |
| 2026-04-17 06:27 | 68.49134 | 16.67828 | 88 ft | 7 kts | 174° |
| 2026-04-17 06:27 | 68.49133 | 16.67829 | 88 ft | 0 kts | 174° |
| 2026-04-17 06:27 | 68.49054 | 16.67838 | 87 ft | 39 kts | 180° |
| 2026-04-17 06:28 | 68.48583 | 16.67894 | 102 ft | 90 kts | 176° |
| 2026-04-17 06:28 | 68.47934 | 16.67972 | 398 ft | 95 kts | 181° |
| 2026-04-17 06:28 | 68.47210 | 16.68015 | 628 ft | 118 kts | 178° |
| 2026-04-17 06:28 | 68.46393 | 16.68060 | 1162 ft | 118 kts | 178° |
| 2026-04-17 06:29 | 68.45572 | 16.68056 | 1758 ft | 118 kts | 179° |
| 2026-04-17 06:29 | 68.44745 | 16.68049 | 2188 ft | 119 kts | 179° |
| 2026-04-17 06:29 | 68.43923 | 16.67974 | 2579 ft | 119 kts | 195° |
| 2026-04-17 06:29 | 68.43382 | 16.66336 | 2953 ft | 121 kts | 240° |
| 2026-04-17 06:30 | 68.43022 | 16.64264 | 3351 ft | 121 kts | 244° |
| 2026-04-17 06:30 | 68.42686 | 16.62163 | 3743 ft | 121 kts | 246° |
| 2026-04-17 06:30 | 68.42355 | 16.60057 | 4134 ft | 121 kts | 246° |
| 2026-04-17 06:30 | 68.42135 | 16.57882 | 4521 ft | 122 kts | 259° |
| 2026-04-17 06:31 | 68.42005 | 16.55602 | 4908 ft | 122 kts | 262° |
| 2026-04-17 06:31 | 68.41893 | 16.53307 | 5296 ft | 123 kts | 263° |
| 2026-04-17 06:31 | 68.41788 | 16.50991 | 5668 ft | 124 kts | 263° |
| 2026-04-17 06:31 | 68.41689 | 16.48666 | 6052 ft | 125 kts | 263° |
| 2026-04-17 06:32 | 68.41590 | 16.46319 | 6427 ft | 126 kts | 262° |
| 2026-04-17 06:32 | 68.41415 | 16.43962 | 6782 ft | 128 kts | 255° |
| 2026-04-17 06:32 | 68.41162 | 16.41638 | 7147 ft | 128 kts | 253° |
| 2026-04-17 06:32 | 68.40887 | 16.39327 | 7499 ft | 129 kts | 252° |
| 2026-04-17 06:33 | 68.40602 | 16.37006 | 7856 ft | 130 kts | 251° |
| 2026-04-17 06:33 | 68.40308 | 16.34669 | 8217 ft | 131 kts | 248° |
| 2026-04-17 06:33 | 68.39754 | 16.32744 | 8569 ft | 132 kts | 220° |
| 2026-04-17 06:33 | 68.39045 | 16.31134 | 8934 ft | 133 kts | 222° |
| 2026-04-17 06:34 | 68.38353 | 16.29449 | 9303 ft | 134 kts | 222° |
| 2026-04-17 06:34 | 68.37655 | 16.27762 | 9667 ft | 135 kts | 221° |
| 2026-04-17 06:34 | 68.36947 | 16.26074 | 10042 ft | 136 kts | 221° |
| 2026-04-17 06:34 | 68.36235 | 16.24377 | 10380 ft | 137 kts | 221° |
| 2026-04-17 06:35 | 68.35515 | 16.22666 | 10716 ft | 138 kts | 221° |
| 2026-04-17 06:35 | 68.34793 | 16.20950 | 11043 ft | 139 kts | 221° |
| 2026-04-17 06:35 | 68.34063 | 16.19217 | 11396 ft | 140 kts | 221° |
| 2026-04-17 06:35 | 68.33333 | 16.17483 | 11734 ft | 140 kts | 221° |
| 2026-04-17 06:36 | 68.32594 | 16.15735 | 12084 ft | 141 kts | 221° |
| 2026-04-17 06:36 | 68.31853 | 16.13978 | 12422 ft | 142 kts | 221° |
| 2026-04-17 06:36 | 68.31105 | 16.12209 | 12776 ft | 143 kts | 221° |
| 2026-04-17 06:36 | 68.30353 | 16.10434 | 13129 ft | 144 kts | 221° |
| 2026-04-17 06:37 | 68.29577 | 16.08714 | 13474 ft | 144 kts | 217° |
| 2026-04-17 06:37 | 68.28769 | 16.07088 | 13836 ft | 145 kts | 216° |
| 2026-04-17 06:37 | 68.27954 | 16.05463 | 14182 ft | 146 kts | 216° |
| 2026-04-17 06:37 | 68.27137 | 16.03818 | 14497 ft | 147 kts | 217° |
| 2026-04-17 06:38 | 68.26319 | 16.02159 | 14813 ft | 148 kts | 217° |
| 2026-04-17 06:38 | 68.25498 | 16.00489 | 15137 ft | 148 kts | 217° |
| 2026-04-17 06:38 | 68.24673 | 15.98807 | 15460 ft | 149 kts | 217° |
| 2026-04-17 06:38 | 68.23845 | 15.97115 | 15795 ft | 150 kts | 217° |
| 2026-04-17 06:39 | 68.23011 | 15.95418 | 16125 ft | 150 kts | 217° |
| 2026-04-17 06:39 | 68.22175 | 15.93713 | 16454 ft | 151 kts | 217° |
| 2026-04-17 06:39 | 68.21334 | 15.92002 | 16779 ft | 152 kts | 217° |
| 2026-04-17 06:39 | 68.20484 | 15.90278 | 17114 ft | 153 kts | 217° |
| 2026-04-17 06:40 | 68.19633 | 15.88546 | 17449 ft | 154 kts | 217° |
| 2026-04-17 06:40 | 68.18788 | 15.86830 | 17772 ft | 155 kts | 218° |
| 2026-04-17 06:40 | 68.18206 | 15.85647 | 18011 ft | 155 kts | 218° |
| 2026-04-17 06:40 | 68.17024 | 15.83254 | 18245 ft | 170 kts | 218° |
| 2026-04-17 06:41 | 68.16365 | 15.81912 | 18252 ft | 182 kts | 218° |
| 2026-04-17 06:41 | 68.15317 | 15.79780 | 18262 ft | 195 kts | 218° |
| 2026-04-17 06:41 | 68.14201 | 15.77518 | 18264 ft | 205 kts | 217° |
| 2026-04-17 06:41 | 68.13038 | 15.75169 | 18264 ft | 212 kts | 217° |
| 2026-04-17 06:42 | 68.11843 | 15.72788 | 18261 ft | 217 kts | 215° |
| 2026-04-17 06:42 | 68.10529 | 15.70733 | 18258 ft | 220 kts | 205° |
| 2026-04-17 06:42 | 68.09128 | 15.69184 | 18262 ft | 221 kts | 203° |
| 2026-04-17 06:42 | 68.07712 | 15.67551 | 18264 ft | 222 kts | 204° |
| 2026-04-17 06:43 | 68.06291 | 15.65893 | 18260 ft | 223 kts | 204° |
| 2026-04-17 06:43 | 68.04860 | 15.64234 | 18262 ft | 224 kts | 203° |
| 2026-04-17 06:43 | 68.03429 | 15.62588 | 18260 ft | 225 kts | 203° |
| 2026-04-17 06:43 | 68.01992 | 15.60942 | 18263 ft | 225 kts | 203° |
| 2026-04-17 06:44 | 68.00556 | 15.59302 | 18258 ft | 225 kts | 203° |
| 2026-04-17 06:44 | 67.99114 | 15.57658 | 18258 ft | 225 kts | 203° |
| 2026-04-17 06:44 | 67.97679 | 15.56026 | 18257 ft | 225 kts | 203° |
| 2026-04-17 06:44 | 67.96226 | 15.54373 | 18091 ft | 231 kts | 202° |
| 2026-04-17 06:45 | 67.94722 | 15.52664 | 17826 ft | 238 kts | 202° |
| 2026-04-17 06:45 | 67.93187 | 15.50924 | 17550 ft | 240 kts | 202° |
| 2026-04-17 06:45 | 67.91660 | 15.49195 | 17282 ft | 238 kts | 202° |
| 2026-04-17 06:45 | 67.90141 | 15.47479 | 17020 ft | 237 kts | 202° |
| 2026-04-17 06:46 | 67.88622 | 15.45767 | 16756 ft | 236 kts | 202° |
| 2026-04-17 06:46 | 67.87113 | 15.44066 | 16497 ft | 235 kts | 202° |